Queen Victoria — ZCEF3 — position and weather

sailwx.info

Track history (hours):
 
Tides and Currents Weather Stations Pressure Air Temp Water Temp Dewpoint Dewpoint Depression Visibility Wind Speed Wind Dir Waves Ship Positions

Queen Victoria

Last reported at 2017-Aug-20 02:34 UTC. Time now 2017-Aug-20 13:40 UTC.
Position N 44°20' E 013°47'.

Length 294 m; draft 8 m.

Type: Passenger vessel. MMSI: 310624000.

Date/timePositionNaut miles runAvg speedWind from/ knotsBaromVisibWave heightAir tempDewpointWater temp
2017-Aug-20 02:34N 44°20' E 013°47'115.8
2017-Aug-20 02:30N 44°21' E 013°46'815.7
2017-Aug-20 02:00N 44°27' E 013°40'815.7
2017-Aug-20 01:30N 44°34' E 013°35'815.7
2017-Aug-20 01:00N 44°41' E 013°29'815.7
2017-Aug-20 00:30N 44°47' E 013°23'2915.5
2017-Aug-19 22:40N 45°12' E 013°02'215.4
2017-Aug-19 22:30N 45°14' E 013°02'815.7
2017-Aug-19 22:00N 45°22' E 013°04'815.2
2017-Aug-19 21:30N 45°28' E 013°09'815.5
2017-Aug-19 21:00N 45°33' E 013°18'815.8
2017-Aug-19 20:30N 45°36' E 013°28'815.5
2017-Aug-19 20:00N 45°39' E 013°38'5 9.9
2017-Aug-19 19:30N 45°39' E 013°45'0 0.6
2017-Aug-19 18:56N 45°39' E 013°46'0 0.0
2017-Aug-19 18:29N 45°39' E 013°46'0 0.0
2017-Aug-19 17:59N 45°39' E 013°46'0 0.0
2017-Aug-19 17:29N 45°39' E 013°46'0 0.0
2017-Aug-19 16:59N 45°39' E 013°46'0 0.0
2017-Aug-19 16:29N 45°39' E 013°46'0 0.0
2017-Aug-19 15:59N 45°39' E 013°46'0 0.0
2017-Aug-19 15:26N 45°39' E 013°46'0 0.0
2017-Aug-19 14:59N 45°39' E 013°46'0 0.0
2017-Aug-19 13:59N 45°39' E 013°46'0 0.0
2017-Aug-19 13:29N 45°39' E 013°46'0 0.0
2017-Aug-19 12:59N 45°39' E 013°46'0 0.0
2017-Aug-19 12:26N 45°39' E 013°46'0 0.0
2017-Aug-19 11:56N 45°39' E 013°46'0 0.0
2017-Aug-19 11:29N 45°39' E 013°46'0 0.0
2017-Aug-19 10:59N 45°39' E 013°46'0 0.0
2017-Aug-19 10:29N 45°39' E 013°46'0 0.0
2017-Aug-19 09:59N 45°39' E 013°46'0 0.0
2017-Aug-19 09:26N 45°39' E 013°46'0 0.0
2017-Aug-19 08:44N 45°39' E 013°46'0 0.0
2017-Aug-19 08:29N 45°39' E 013°46'0 0.0
2017-Aug-19 07:56N 45°39' E 013°46'0 0.0
2017-Aug-19 07:29N 45°39' E 013°46'0 0.0
2017-Aug-19 06:53N 45°39' E 013°46'0 0.0
2017-Aug-19 06:29N 45°39' E 013°46'0 0.0
2017-Aug-19 05:56N 45°39' E 013°46'0 0.0
2017-Aug-19 05:23N 45°39' E 013°46'0 0.0
2017-Aug-19 04:59N 45°39' E 013°46'0 0.0
2017-Aug-19 04:26N 45°39' E 013°46'0 0.0
2017-Aug-19 03:59N 45°39' E 013°46'0 0.0
2017-Aug-19 03:30N 45°39' E 013°46'1 2.3
2017-Aug-19 02:59N 45°39' E 013°44'3 7.3
2017-Aug-19 02:30N 45°39' E 013°39'4 8.4
2017-Aug-19 02:00N 45°37' E 013°34'4 8.9
2017-Aug-19 01:30N 45°34' E 013°30'4 8.8
2017-Aug-19 01:00N 45°32' E 013°24'4 8.9
2017-Aug-19 00:30N 45°30' E 013°18'5 9.1
2017-Aug-19 00:00N 45°28' E 013°12'4 9.1
2017-Aug-18 23:30N 45°27' E 013°06'5 9.1
2017-Aug-18 23:00N 45°26' E 012°60'5 9.1
2017-Aug-18 22:30N 45°24' E 012°54'5 9.1
2017-Aug-18 22:00N 45°23' E 012°47'5 9.0
2017-Aug-18 21:30N 45°22' E 012°41'5 9.1
2017-Aug-18 21:00N 45°21' E 012°35'510.0
2017-Aug-18 20:30N 45°24' E 012°29'5 9.4
2017-Aug-18 20:00N 45°26' E 012°23'3 5.1
2017-Aug-18 19:30N 45°26' E 012°19'1 1.3
2017-Aug-18 18:58N 45°26' E 012°19'0 0.0
2017-Aug-18 18:28N 45°26' E 012°19'0 0.0
2017-Aug-18 17:58N 45°26' E 012°19'0 0.0
2017-Aug-18 17:28N 45°26' E 012°19'0 0.0
2017-Aug-18 16:58N 45°26' E 012°19'0 0.0
2017-Aug-18 16:28N 45°26' E 012°19'0 0.0
2017-Aug-18 15:58N 45°26' E 012°19'0 0.0
2017-Aug-18 15:28N 45°26' E 012°19'0 0.0
2017-Aug-18 14:58N 45°26' E 012°19'0 0.0
2017-Aug-18 13:58N 45°26' E 012°19'0 0.0
2017-Aug-18 13:28N 45°26' E 012°19'0 0.0
2017-Aug-18 12:58N 45°26' E 012°19'0 0.0
2017-Aug-18 12:28N 45°26' E 012°19'0 0.0
2017-Aug-18 11:58N 45°26' E 012°19'0 0.0
2017-Aug-18 11:25N 45°26' E 012°19'0 0.0
2017-Aug-18 10:58N 45°26' E 012°19'0 0.0
2017-Aug-18 10:25N 45°26' E 012°19'0 0.0
2017-Aug-18 09:58N 45°26' E 012°19'0 0.0
2017-Aug-18 09:28N 45°26' E 012°19'0 0.0
2017-Aug-18 08:58N 45°26' E 012°19'0 0.0
2017-Aug-18 08:28N 45°26' E 012°19'0 0.0
2017-Aug-18 07:58N 45°26' E 012°19'0 0.0
2017-Aug-18 07:28N 45°26' E 012°19'0 0.0
2017-Aug-18 06:58N 45°26' E 012°19'0 0.0
2017-Aug-18 06:28N 45°26' E 012°19'0 0.0
2017-Aug-18 05:58N 45°26' E 012°19'0 0.8
2017-Aug-18 05:30N 45°26' E 012°18'2 4.4
2017-Aug-18 05:01N 45°26' E 012°21'3 6.2
2017-Aug-18 04:31N 45°25' E 012°26'5 9.1
2017-Aug-18 04:01N 45°23' E 012°31'5 9.9
2017-Aug-18 03:31N 45°20' E 012°37'5 9.7
2017-Aug-18 03:01N 45°18' E 012°43'5 9.7
2017-Aug-18 02:31N 45°15' E 012°48'5 9.7
2017-Aug-18 02:00N 45°11' E 012°53'5 9.7
2017-Aug-18 01:31N 45°08' E 012°58'5 9.7
2017-Aug-18 01:00N 45°05' E 013°03'5 9.6
2017-Aug-18 00:31N 45°02' E 013°09'5 9.7
2017-Aug-18 00:00N 44°60' E 013°15'5 9.7
2017-Aug-17 23:31N 44°57' E 013°21'5 9.6
2017-Aug-17 23:01N 44°53' E 013°25'5 9.7
2017-Aug-17 22:31N 44°49' E 013°29'5 9.7
2017-Aug-17 22:00N 44°45' E 013°32'5 9.8
2017-Aug-17 21:30N 44°41' E 013°36'5 9.7
2017-Aug-17 21:01N 44°37' E 013°39'5 9.7
2017-Aug-17 20:31N 44°33' E 013°44'5 9.8
2017-Aug-17 20:00N 44°29' E 013°48'5 9.8
2017-Aug-17 19:30N 44°25' E 013°51'5 9.7
2017-Aug-17 19:00N 44°21' E 013°55'5 9.6
2017-Aug-17 18:31N 44°17' E 013°59'5 9.7
2017-Aug-17 18:00N 44°13' E 014°02'5 9.7
2017-Aug-17 17:31N 44°09' E 014°06'5 9.8
2017-Aug-17 17:01N 44°05' E 014°10'5 9.8
2017-Aug-17 16:31N 44°01' E 014°14'5 9.8
2017-Aug-17 16:01N 43°57' E 014°19'5 9.8
2017-Aug-17 15:30N 43°53' E 014°23'14 9.8
2017-Aug-17 14:06N 43°43' E 014°35'1 9.7
2017-Aug-17 14:01N 43°42' E 014°36'  
2017-Aug-13 13:42N 37°50' E 015°49'316.5
2017-Aug-13 13:31N 37°51' E 015°45'817.0
2017-Aug-13 13:01N 37°56' E 015°37'815.6
2017-Aug-13 12:31N 38°03' E 015°34'816.1
2017-Aug-13 12:00N 38°11' E 015°36'714.4
2017-Aug-13 11:31N 38°17' E 015°40'815.1
2017-Aug-13 11:01N 38°24' E 015°35'816.5
2017-Aug-13 10:30N 38°31' E 015°29'816.3
2017-Aug-13 10:00N 38°36' E 015°22'816.2
2017-Aug-13 09:31N 38°42' E 015°15'816.2
2017-Aug-13 09:01N 38°48' E 015°08'816.2
2017-Aug-13 08:30N 38°54' E 015°01'916.2
2017-Aug-13 07:58N 39°01' E 014°54'320 8.9
2017-Aug-11 19:55N 43°04' E 010°18'819.4
2017-Aug-11 19:30N 43°12' E 010°17'918.6
2017-Aug-11 19:00N 43°21' E 010°15'816.5
2017-Aug-11 18:30N 43°30' E 010°15'4 7.1
2017-Aug-11 18:01N 43°32' E 010°17'1 1.5
2017-Aug-11 17:31N 43°33' E 010°18'0 0.0
2017-Aug-11 16:59N 43°33' E 010°18'0 0.0
2017-Aug-11 16:29N 43°33' E 010°18'0 0.0
2017-Aug-11 15:59N 43°33' E 010°18'0 0.0
2017-Aug-11 15:29N 43°33' E 010°18'0 0.0
2017-Aug-11 14:59N 43°33' E 010°18'0 0.0
2017-Aug-11 13:59N 43°33' E 010°18'0 0.0
2017-Aug-11 13:29N 43°33' E 010°18'0 0.0
2017-Aug-11 12:59N 43°33' E 010°18'0 0.0
2017-Aug-11 12:29N 43°33' E 010°18'0 0.0
2017-Aug-11 11:59N 43°33' E 010°18'0 0.0
2017-Aug-11 11:26N 43°33' E 010°18'0 0.0
2017-Aug-11 10:59N 43°33' E 010°18'0 0.0
2017-Aug-11 10:29N 43°33' E 010°18'0 0.0
2017-Aug-11 09:59N 43°33' E 010°18'0 0.0
2017-Aug-11 09:26N 43°33' E 010°18'0 0.0
2017-Aug-11 08:59N 43°33' E 010°18'0 0.0
2017-Aug-11 08:26N 43°33' E 010°18'0 0.0
2017-Aug-11 07:59N 43°33' E 010°18'0 0.0
2017-Aug-11 07:29N 43°33' E 010°18'0 0.0
2017-Aug-11 06:59N 43°33' E 010°18'0 0.0
2017-Aug-11 06:29N 43°33' E 010°18'0 0.0
2017-Aug-11 05:56N 43°33' E 010°18'0 0.0
2017-Aug-11 05:29N 43°33' E 010°18'0 0.2
2017-Aug-11 05:00N 43°33' E 010°18'3 5.6
2017-Aug-11 04:30N 43°31' E 010°15'4 7.8
2017-Aug-11 04:00N 43°30' E 010°10'510.1
2017-Aug-11 03:31N 43°30' E 010°03'510.2
2017-Aug-11 03:00N 43°31' E 009°56'510.2
2017-Aug-11 02:30N 43°32' E 009°49'510.3
2017-Aug-11 02:00N 43°32' E 009°42'510.3
2017-Aug-11 01:30N 43°33' E 009°35'510.4
2017-Aug-11 01:00N 43°33' E 009°28'510.1
2017-Aug-11 00:30N 43°34' E 009°21'510.1
2017-Aug-11 00:00N 43°35' E 009°14'510.2
2017-Aug-10 23:30N 43°35' E 009°07'510.2
2017-Aug-10 23:01N 43°36' E 009°01'510.2
2017-Aug-10 22:31N 43°37' E 008°54'510.1
2017-Aug-10 21:59N 43°37' E 008°46'510.2
2017-Aug-10 21:30N 43°38' E 008°40'510.2
2017-Aug-10 21:01N 43°38' E 008°33'510.2
2017-Aug-10 20:30N 43°39' E 008°26'510.2
2017-Aug-10 20:00N 43°40' E 008°19'510.2
2017-Aug-10 19:30N 43°40' E 008°12'510.2
2017-Aug-10 19:00N 43°41' E 008°05'510.2
2017-Aug-10 18:30N 43°42' E 007°58'610.2
2017-Aug-10 17:57N 43°42' E 007°50'18 2.2
2017-Aug-10 10:02N 43°44' E 007°26'0 0.0
2017-Aug-10 09:56N 43°44' E 007°26'1 0.2
2017-Aug-10 05:04N 43°44' E 007°27'1 6.4
2017-Aug-10 04:56N 43°43' E 007°28'611.7
2017-Aug-10 04:22N 43°37' E 007°31'513.4
2017-Aug-10 04:00N 43°33' E 007°33'813.3
2017-Aug-10 03:26N 43°26' E 007°36'613.3
2017-Aug-10 03:00N 43°20' E 007°39'  
Track history (hours):
 
Tides and Currents Weather Stations Pressure Air Temp Water Temp Dewpoint Dewpoint Depression Visibility Wind Speed Wind Dir Waves Ship Positions

Queen Victoria

Last reported at 2017-Aug-20 02:34 UTC. Time now 2017-Aug-20 13:40 UTC.
Position N 44°20' E 013°47'.

Length 294 m; draft 8 m.

Type: Passenger vessel. MMSI: 310624000.

Date/timePositionNaut miles runAvg speedWind from/ knotsBaromVisibWave heightAir tempDewpointWater temp
2017-Aug-20 02:34N 44°20' E 013°47'115.8
2017-Aug-20 02:30N 44°21' E 013°46'815.7
2017-Aug-20 02:00N 44°27' E 013°40'815.7
2017-Aug-20 01:30N 44°34' E 013°35'815.7
2017-Aug-20 01:00N 44°41' E 013°29'815.7
2017-Aug-20 00:30N 44°47' E 013°23'2915.5
2017-Aug-19 22:40N 45°12' E 013°02'215.4
2017-Aug-19 22:30N 45°14' E 013°02'815.7
2017-Aug-19 22:00N 45°22' E 013°04'815.2
2017-Aug-19 21:30N 45°28' E 013°09'815.5
2017-Aug-19 21:00N 45°33' E 013°18'815.8
2017-Aug-19 20:30N 45°36' E 013°28'815.5
2017-Aug-19 20:00N 45°39' E 013°38'5 9.9
2017-Aug-19 19:30N 45°39' E 013°45'0 0.6
2017-Aug-19 18:56N 45°39' E 013°46'0 0.0
2017-Aug-19 18:29N 45°39' E 013°46'0 0.0
2017-Aug-19 17:59N 45°39' E 013°46'0 0.0
2017-Aug-19 17:29N 45°39' E 013°46'0 0.0
2017-Aug-19 16:59N 45°39' E 013°46'0 0.0
2017-Aug-19 16:29N 45°39' E 013°46'0 0.0
2017-Aug-19 15:59N 45°39' E 013°46'0 0.0
2017-Aug-19 15:26N 45°39' E 013°46'0 0.0
2017-Aug-19 14:59N 45°39' E 013°46'0 0.0
2017-Aug-19 13:59N 45°39' E 013°46'0 0.0
2017-Aug-19 13:29N 45°39' E 013°46'0 0.0
2017-Aug-19 12:59N 45°39' E 013°46'0 0.0
2017-Aug-19 12:26N 45°39' E 013°46'0 0.0
2017-Aug-19 11:56N 45°39' E 013°46'0 0.0
2017-Aug-19 11:29N 45°39' E 013°46'0 0.0
2017-Aug-19 10:59N 45°39' E 013°46'0 0.0
2017-Aug-19 10:29N 45°39' E 013°46'0 0.0
2017-Aug-19 09:59N 45°39' E 013°46'0 0.0
2017-Aug-19 09:26N 45°39' E 013°46'0 0.0
2017-Aug-19 08:44N 45°39' E 013°46'0 0.0
2017-Aug-19 08:29N 45°39' E 013°46'0 0.0
2017-Aug-19 07:56N 45°39' E 013°46'0 0.0
2017-Aug-19 07:29N 45°39' E 013°46'0 0.0
2017-Aug-19 06:53N 45°39' E 013°46'0 0.0
2017-Aug-19 06:29N 45°39' E 013°46'0 0.0
2017-Aug-19 05:56N 45°39' E 013°46'0 0.0
2017-Aug-19 05:23N 45°39' E 013°46'0 0.0
2017-Aug-19 04:59N 45°39' E 013°46'0 0.0
2017-Aug-19 04:26N 45°39' E 013°46'0 0.0
2017-Aug-19 03:59N 45°39' E 013°46'0 0.0
2017-Aug-19 03:30N 45°39' E 013°46'1 2.3
2017-Aug-19 02:59N 45°39' E 013°44'3 7.3
2017-Aug-19 02:30N 45°39' E 013°39'4 8.4
2017-Aug-19 02:00N 45°37' E 013°34'4 8.9
2017-Aug-19 01:30N 45°34' E 013°30'4 8.8
2017-Aug-19 01:00N 45°32' E 013°24'4 8.9
2017-Aug-19 00:30N 45°30' E 013°18'5 9.1
2017-Aug-19 00:00N 45°28' E 013°12'4 9.1
2017-Aug-18 23:30N 45°27' E 013°06'5 9.1
2017-Aug-18 23:00N 45°26' E 012°60'5 9.1
2017-Aug-18 22:30N 45°24' E 012°54'5 9.1
2017-Aug-18 22:00N 45°23' E 012°47'5 9.0
2017-Aug-18 21:30N 45°22' E 012°41'5 9.1
2017-Aug-18 21:00N 45°21' E 012°35'510.0
2017-Aug-18 20:30N 45°24' E 012°29'5 9.4
2017-Aug-18 20:00N 45°26' E 012°23'3 5.1
2017-Aug-18 19:30N 45°26' E 012°19'1 1.3
2017-Aug-18 18:58N 45°26' E 012°19'0 0.0
2017-Aug-18 18:28N 45°26' E 012°19'0 0.0
2017-Aug-18 17:58N 45°26' E 012°19'0 0.0
2017-Aug-18 17:28N 45°26' E 012°19'0 0.0
2017-Aug-18 16:58N 45°26' E 012°19'0 0.0
2017-Aug-18 16:28N 45°26' E 012°19'0 0.0
2017-Aug-18 15:58N 45°26' E 012°19'0 0.0
2017-Aug-18 15:28N 45°26' E 012°19'0 0.0
2017-Aug-18 14:58N 45°26' E 012°19'0 0.0
2017-Aug-18 13:58N 45°26' E 012°19'0 0.0
2017-Aug-18 13:28N 45°26' E 012°19'0 0.0
2017-Aug-18 12:58N 45°26' E 012°19'0 0.0
2017-Aug-18 12:28N 45°26' E 012°19'0 0.0
2017-Aug-18 11:58N 45°26' E 012°19'0 0.0
2017-Aug-18 11:25N 45°26' E 012°19'0 0.0
2017-Aug-18 10:58N 45°26' E 012°19'0 0.0
2017-Aug-18 10:25N 45°26' E 012°19'0 0.0
2017-Aug-18 09:58N 45°26' E 012°19'0 0.0
2017-Aug-18 09:28N 45°26' E 012°19'0 0.0
2017-Aug-18 08:58N 45°26' E 012°19'0 0.0
2017-Aug-18 08:28N 45°26' E 012°19'0 0.0
2017-Aug-18 07:58N 45°26' E 012°19'0 0.0
2017-Aug-18 07:28N 45°26' E 012°19'0 0.0
2017-Aug-18 06:58N 45°26' E 012°19'0 0.0
2017-Aug-18 06:28N 45°26' E 012°19'0 0.0
2017-Aug-18 05:58N 45°26' E 012°19'0 0.8
2017-Aug-18 05:30N 45°26' E 012°18'2 4.4
2017-Aug-18 05:01N 45°26' E 012°21'3 6.2
2017-Aug-18 04:31N 45°25' E 012°26'5 9.1
2017-Aug-18 04:01N 45°23' E 012°31'5 9.9
2017-Aug-18 03:31N 45°20' E 012°37'5 9.7
2017-Aug-18 03:01N 45°18' E 012°43'5 9.7
2017-Aug-18 02:31N 45°15' E 012°48'5 9.7
2017-Aug-18 02:00N 45°11' E 012°53'5 9.7
2017-Aug-18 01:31N 45°08' E 012°58'5 9.7
2017-Aug-18 01:00N 45°05' E 013°03'5 9.6
2017-Aug-18 00:31N 45°02' E 013°09'5 9.7
2017-Aug-18 00:00N 44°60' E 013°15'5 9.7
2017-Aug-17 23:31N 44°57' E 013°21'5 9.6
2017-Aug-17 23:01N 44°53' E 013°25'5 9.7
2017-Aug-17 22:31N 44°49' E 013°29'5 9.7
2017-Aug-17 22:00N 44°45' E 013°32'5 9.8
2017-Aug-17 21:30N 44°41' E 013°36'5 9.7
2017-Aug-17 21:01N 44°37' E 013°39'5 9.7
2017-Aug-17 20:31N 44°33' E 013°44'5 9.8
2017-Aug-17 20:00N 44°29' E 013°48'5 9.8
2017-Aug-17 19:30N 44°25' E 013°51'5 9.7
2017-Aug-17 19:00N 44°21' E 013°55'5 9.6
2017-Aug-17 18:31N 44°17' E 013°59'5 9.7
2017-Aug-17 18:00N 44°13' E 014°02'5 9.7
2017-Aug-17 17:31N 44°09' E 014°06'5 9.8
2017-Aug-17 17:01N 44°05' E 014°10'5 9.8
2017-Aug-17 16:31N 44°01' E 014°14'5 9.8
2017-Aug-17 16:01N 43°57' E 014°19'5 9.8
2017-Aug-17 15:30N 43°53' E 014°23'14 9.8
2017-Aug-17 14:06N 43°43' E 014°35'1 9.7
2017-Aug-17 14:01N 43°42' E 014°36'  
2017-Aug-13 13:42N 37°50' E 015°49'316.5
2017-Aug-13 13:31N 37°51' E 015°45'817.0
2017-Aug-13 13:01N 37°56' E 015°37'815.6
2017-Aug-13 12:31N 38°03' E 015°34'816.1
2017-Aug-13 12:00N 38°11' E 015°36'714.4
2017-Aug-13 11:31N 38°17' E 015°40'815.1
2017-Aug-13 11:01N 38°24' E 015°35'816.5
2017-Aug-13 10:30N 38°31' E 015°29'816.3
2017-Aug-13 10:00N 38°36' E 015°22'816.2
2017-Aug-13 09:31N 38°42' E 015°15'816.2
2017-Aug-13 09:01N 38°48' E 015°08'816.2
2017-Aug-13 08:30N 38°54' E 015°01'916.2
2017-Aug-13 07:58N 39°01' E 014°54'320 8.9
2017-Aug-11 19:55N 43°04' E 010°18'819.4
2017-Aug-11 19:30N 43°12' E 010°17'918.6
2017-Aug-11 19:00N 43°21' E 010°15'816.5
2017-Aug-11 18:30N 43°30' E 010°15'4 7.1
2017-Aug-11 18:01N 43°32' E 010°17'1 1.5
2017-Aug-11 17:31N 43°33' E 010°18'0 0.0
2017-Aug-11 16:59N 43°33' E 010°18'0 0.0
2017-Aug-11 16:29N 43°33' E 010°18'0 0.0
2017-Aug-11 15:59N 43°33' E 010°18'0 0.0
2017-Aug-11 15:29N 43°33' E 010°18'0 0.0
2017-Aug-11 14:59N 43°33' E 010°18'0 0.0
2017-Aug-11 13:59N 43°33' E 010°18'0 0.0
2017-Aug-11 13:29N 43°33' E 010°18'0 0.0
2017-Aug-11 12:59N 43°33' E 010°18'0 0.0
2017-Aug-11 12:29N 43°33' E 010°18'0 0.0
2017-Aug-11 11:59N 43°33' E 010°18'0 0.0
2017-Aug-11 11:26N 43°33' E 010°18'0 0.0
2017-Aug-11 10:59N 43°33' E 010°18'0 0.0
2017-Aug-11 10:29N 43°33' E 010°18'0 0.0
2017-Aug-11 09:59N 43°33' E 010°18'0 0.0
2017-Aug-11 09:26N 43°33' E 010°18'0 0.0
2017-Aug-11 08:59N 43°33' E 010°18'0 0.0
2017-Aug-11 08:26N 43°33' E 010°18'0 0.0
2017-Aug-11 07:59N 43°33' E 010°18'0 0.0
2017-Aug-11 07:29N 43°33' E 010°18'0 0.0
2017-Aug-11 06:59N 43°33' E 010°18'0 0.0
2017-Aug-11 06:29N 43°33' E 010°18'0 0.0
2017-Aug-11 05:56N 43°33' E 010°18'0 0.0
2017-Aug-11 05:29N 43°33' E 010°18'0 0.2
2017-Aug-11 05:00N 43°33' E 010°18'3 5.6
2017-Aug-11 04:30N 43°31' E 010°15'4 7.8
2017-Aug-11 04:00N 43°30' E 010°10'510.1
2017-Aug-11 03:31N 43°30' E 010°03'510.2
2017-Aug-11 03:00N 43°31' E 009°56'510.2
2017-Aug-11 02:30N 43°32' E 009°49'510.3
2017-Aug-11 02:00N 43°32' E 009°42'510.3
2017-Aug-11 01:30N 43°33' E 009°35'510.4
2017-Aug-11 01:00N 43°33' E 009°28'510.1
2017-Aug-11 00:30N 43°34' E 009°21'510.1
2017-Aug-11 00:00N 43°35' E 009°14'510.2
2017-Aug-10 23:30N 43°35' E 009°07'510.2
2017-Aug-10 23:01N 43°36' E 009°01'510.2
2017-Aug-10 22:31N 43°37' E 008°54'510.1
2017-Aug-10 21:59N 43°37' E 008°46'510.2
2017-Aug-10 21:30N 43°38' E 008°40'510.2
2017-Aug-10 21:01N 43°38' E 008°33'510.2
2017-Aug-10 20:30N 43°39' E 008°26'510.2
2017-Aug-10 20:00N 43°40' E 008°19'510.2
2017-Aug-10 19:30N 43°40' E 008°12'510.2
2017-Aug-10 19:00N 43°41' E 008°05'510.2
2017-Aug-10 18:30N 43°42' E 007°58'610.2
2017-Aug-10 17:57N 43°42' E 007°50'18 2.2
2017-Aug-10 10:02N 43°44' E 007°26'0 0.0
2017-Aug-10 09:56N 43°44' E 007°26'1 0.2
2017-Aug-10 05:04N 43°44' E 007°27'1 6.4
2017-Aug-10 04:56N 43°43' E 007°28'611.7
2017-Aug-10 04:22N 43°37' E 007°31'513.4
2017-Aug-10 04:00N 43°33' E 007°33'813.3
2017-Aug-10 03:26N 43°26' E 007°36'613.3
2017-Aug-10 03:00N 43°20' E 007°39'  

Dump ship's entire track history